Time;durP1;ratioP1;P1;durP2;ratioP2;P2;SDS_P1;SDS_P2;PMS_P1;PMS_P2;Temp;Humidity;BMP_temperature;BMP_pressure;BME280_temperature;BME280_humidity;BME280_pressure;Samples;Min_cycle;Max_cycle;Signal;HPM_P1;HPM_P2
2021/04/28 00:00:00;;;;;;;;;;;;;;;;;;;;;
2021/04/28 00:02:54;;;;;;;12.27;9.93;;;2.10;91.70;;;;;;6221693;23;20080;-92
2021/04/28 00:05:35;;;;;;;15.80;9.48;;;2.10;91.80;;;;;;6194986;23;20491;-92
2021/04/28 00:08:32;;;;;;;10.18;7.93;;;2.10;91.80;;;;;;6195706;23;20023;-91
2021/04/28 00:11:11;;;;;;;;;;;;;;;;;;;;;
2021/04/28 00:13:43;;;;;;;11.40;8.65;;;2.10;91.60;;;;;;6221568;23;20048;-92
2021/04/28 00:16:36;;;;;;;12.93;8.77;;;2.10;91.80;;;;;;6197345;23;20004;-92
2021/04/28 00:19:25;;;;;;;;;;;;;;;;;;;;;
2021/04/28 00:22:05;;;;;;;10.63;7.43;;;2.00;91.70;;;;;;6230913;23;20016;-91
2021/04/28 00:24:41;;;;;;;8.95;6.63;;;2.00;91.70;;;;;;6178904;23;20014;-91
2021/04/28 00:27:25;;;;;;;;;;;;;;;;;;;;;
2021/04/28 00:30:12;;;;;;;14.05;9.43;;;2.10;91.70;;;;;;6164059;23;20043;-91
2021/04/28 00:32:50;;;;;;;;;;;;;;;;;;;;;
2021/04/28 00:35:47;;;;;;;15.23;8.50;;;2.00;91.60;;;;;;6166007;23;20025;-92
2021/04/28 00:41:38;;;;;;;10.45;8.20;;;2.00;91.60;;;;;;6164408;23;20013;-92
2021/04/28 00:44:34;;;;;;;;;;;;;;;;;;;;;
2021/04/28 00:47:23;;;;;;;13.43;10.35;;;1.90;91.60;;;;;;6164047;23;20025;-93
2021/04/28 00:50:37;;;;;;;15.45;9.70;;;1.90;91.80;;;;;;6162564;23;20008;-93
2021/04/28 00:53:32;;;;;;;18.63;11.43;;;1.90;91.70;;;;;;6186453;23;20006;-93
2021/04/28 00:56:26;;;;;;;16.67;11.50;;;1.90;91.80;;;;;;6188275;23;20009;-93
2021/04/28 00:58:57;;;;;;;12.37;8.60;;;1.90;91.60;;;;;;6163026;23;20039;-94
2021/04/28 01:01:42;;;;;;;;;;;;;;;;;;;;;
2021/04/28 01:04:26;;;;;;;15.68;8.65;;;1.90;91.60;;;;;;6169517;23;20025;-94
2021/04/28 01:07:15;;;;;;;;;;;;;;;;;;;;;
2021/04/28 01:09:54;;;;;;;9.15;7.05;;;1.90;91.70;;;;;;6169043;23;20045;-91
2021/04/28 01:12:28;;;;;;;11.65;7.10;;;1.80;91.90;;;;;;6191376;23;20024;-92
2021/04/28 01:15:02;;;;;;;;;;;1.80;91.70;;;;;;6192455;23;20426;-92
2021/04/28 01:17:33;;;;;;;9.90;7.25;;;1.80;91.80;;;;;;6163896;23;19901;-92
2021/04/28 01:20:32;;;;;;;13.57;7.70;;;1.80;91.60;;;;;;6164929;23;20072;-92
2021/04/28 01:23:16;;;;;;;12.15;8.88;;;1.80;91.50;;;;;;6176758;23;20013;-92
2021/04/28 01:25:43;;;;;;;17.02;10.98;;;1.80;91.40;;;;;;6245449;23;19988;-93
2021/04/28 01:28:27;;;;;;;17.83;11.60;;;1.70;91.50;;;;;;6218708;23;19989;-94
2021/04/28 01:31:31;;;;;;;20.83;13.50;;;1.70;91.50;;;;;;6219296;23;20157;-93
2021/04/28 01:37:39;;;;;;;23.85;16.83;;;1.60;91.50;;;;;;6226205;23;20428;-93
2021/04/28 01:40:36;;;;;;;20.60;14.15;;;1.60;91.50;;;;;;6199363;23;20011;-92
2021/04/28 01:43:28;;;;;;;;;;;;;;;;;;;;;
2021/04/28 01:46:03;;;;;;;20.92;14.15;;;1.50;91.50;;;;;;6226196;23;20032;-92
2021/04/28 01:48:44;;;;;;;22.33;15.15;;;1.50;91.80;;;;;;6201392;23;20004;-93
2021/04/28 01:51:19;;;;;;;19.95;13.10;;;1.50;91.80;;;;;;6197845;23;20004;-93
2021/04/28 01:54:03;;;;;;;17.65;13.25;;;1.50;91.80;;;;;;6197279;23;20004;-93
2021/04/28 01:57:00;;;;;;;16.27;11.07;;;1.50;91.80;;;;;;6197110;23;20031;-92
2021/04/28 01:59:52;;;;;;;14.65;9.88;;;1.50;91.80;;;;;;6197704;23;20037;-92
2021/04/28 02:02:26;;;;;;;14.82;9.90;;;1.50;91.80;;;;;;6196236;23;20013;-93
2021/04/28 02:05:06;;;;;;;14.57;10.52;;;1.50;91.80;;;;;;6196870;23;20007;-92
2021/04/28 02:07:42;;;;;;;16.30;11.65;;;1.50;91.80;;;;;;6198302;23;20001;-92
2021/04/28 02:10:26;;;;;;;18.55;10.98;;;1.60;91.70;;;;;;6202257;23;19997;-92
2021/04/28 02:13:21;;;;;;;17.13;11.00;;;1.60;91.60;;;;;;6210985;23;20028;-91
2021/04/28 02:15:50;;;;;;;20.35;13.30;;;1.60;91.60;;;;;;6210183;23;20024;-91
2021/04/28 02:18:35;;;;;;;18.38;13.55;;;1.60;91.50;;;;;;6197980;23;20004;-92
2021/04/28 02:21:37;;;;;;;;;;;;;;;;;;;;;
2021/04/28 02:24:38;;;;;;;18.70;13.50;;;1.50;91.60;;;;;;6230054;23;20013;-91
2021/04/28 02:27:17;;;;;;;18.35;11.70;;;1.50;91.60;;;;;;6208094;23;20031;-91
2021/04/28 02:30:11;;;;;;;11.85;8.70;;;1.50;91.60;;;;;;6234966;23;20490;-92
2021/04/28 02:33:03;;;;;;;15.95;11.00;;;1.50;91.70;;;;;;6207425;23;20010;-92
2021/04/28 02:35:34;;;;;;;15.52;11.05;;;1.50;91.70;;;;;;6206025;23;20004;-92
2021/04/28 02:38:26;;;;;;;18.60;12.43;;;1.50;91.70;;;;;;6207135;23;20005;-92
2021/04/28 02:41:12;;;;;;;16.30;10.95;;;1.50;91.60;;;;;;6202527;23;20040;-92
2021/04/28 02:43:52;;;;;;;16.23;12.43;;;1.50;91.60;;;;;;6197971;23;20067;-92
2021/04/28 02:46:26;;;;;;;20.67;12.82;;;1.50;91.70;;;;;;6202355;23;20095;-92
2021/04/28 02:49:00;;;;;;;21.63;13.95;;;1.50;91.70;;;;;;6200429;23;20001;-92
2021/04/28 02:51:58;;;;;;;22.60;12.35;;;1.50;91.80;;;;;;6200261;23;20000;-93
2021/04/28 02:54:45;;;;;;;20.15;13.38;;;1.50;91.80;;;;;;6196780;23;20444;-92
2021/04/28 02:57:24;;;;;;;21.55;15.05;;;1.50;91.80;;;;;;6193990;23;19997;-93
2021/04/28 03:00:38;;;;;;;20.52;13.68;;;1.60;91.80;;;;;;6198884;23;20028;-93
2021/04/28 03:03:14;;;;;;;23.08;13.75;;;1.60;91.80;;;;;;6177741;23;20004;-92
2021/04/28 03:06:09;;;;;;;18.92;12.20;;;1.60;91.80;;;;;;6199356;23;20024;-92
2021/04/28 03:08:45;;;;;;;17.80;12.35;;;1.70;91.90;;;;;;6199127;23;19996;-92
2021/04/28 03:11:17;;;;;;;21.67;12.95;;;1.70;91.90;;;;;;6228851;23;19992;-92
2021/04/28 03:14:04;;;;;;;16.58;11.00;;;1.70;91.90;;;;;;6202328;23;20004;-93
2021/04/28 03:16:42;;;;;;;13.98;10.82;;;1.80;91.90;;;;;;6198115;23;20008;-93
2021/04/28 03:19:31;;;;;;;17.20;9.82;;;1.90;91.90;;;;;;6199464;23;19997;-93
2021/04/28 03:22:07;;;;;;;15.80;10.60;;;2.00;91.90;;;;;;6226135;23;20308;-93
2021/04/28 03:24:50;;;;;;;12.57;9.05;;;2.00;91.90;;;;;;6198309;23;20062;-93
2021/04/28 03:27:33;;;;;;;13.38;9.02;;;2.10;91.90;;;;;;6199422;23;20050;-93
2021/04/28 03:30:06;;;;;;;12.05;8.43;;;2.20;91.90;;;;;;6225525;23;20005;-93
2021/04/28 03:32:43;;;;;;;14.18;9.98;;;2.30;92.00;;;;;;6198723;23;20064;-93
2021/04/28 03:35:28;;;;;;;;;;;;;;;;;;;;;
2021/04/28 03:38:19;;;;;;;13.82;10.20;;;2.50;91.90;;;;;;6225647;23;20020;-93
2021/04/28 03:41:21;;;;;;;14.05;10.15;;;2.50;91.80;;;;;;6224114;23;20004;-93
2021/04/28 03:44:22;;;;;;;;;;;;;;;;;;;;;
2021/04/28 03:47:13;;;;;;;14.35;10.07;;;2.80;91.90;;;;;;6226869;23;20016;-93
2021/04/28 03:49:57;;;;;;;;;;;;;;;;;;;;;
2021/04/28 03:52:34;;;;;;;15.73;10.15;;;3.00;91.60;;;;;;6227326;23;20067;-93
2021/04/28 03:55:45;;;;;;;;;;;;;;;;;;;;;
2021/04/28 03:58:53;;;;;;;26.23;15.23;;;3.20;91.30;;;;;;6222091;23;20028;-93
2021/04/28 04:14:18;;;;;;;15.68;11.18;;;3.60;91.10;;;;;;6219230;23;20005;-93
2021/04/28 04:17:12;;;;;;;;;;;;;;;;;;;;;
2021/04/28 04:20:46;;;;;;;15.93;10.23;;;3.90;90.90;;;;;;6231630;23;20019;-92
2021/04/28 04:23:28;;;;;;;13.10;9.23;;;4.00;90.80;;;;;;6229096;23;20103;-93
2021/04/28 04:29:40;;;;;;;11.75;7.30;;;4.20;90.70;;;;;;6205758;23;20016;-93
2021/04/28 04:32:28;;;;;;;;;;;;;;;;;;;;;
2021/04/28 04:35:20;;;;;;;13.98;8.82;;;4.40;90.40;;;;;;6199754;23;20040;-93
2021/04/28 04:38:16;;;;;;;;;;;;;;;;;;;;;
2021/04/28 04:41:37;;;;;;;;;;;;;;;;;;;;;
2021/04/28 04:44:43;;;;;;;17.08;11.98;;;4.70;90.10;;;;;;6191521;23;20029;-93
2021/04/28 04:47:21;;;;;;;;;;;;;;;;;;;;;
2021/04/28 04:50:11;;;;;;;15.98;10.25;;;4.80;89.90;;;;;;6198227;23;20033;-93
2021/04/28 04:53:01;;;;;;;13.10;9.02;;;4.90;89.80;;;;;;6199132;23;20005;-94
2021/04/28 04:55:44;;;;;;;14.98;9.77;;;5.00;89.40;;;;;;6173745;23;20084;-94
2021/04/28 04:58:42;;;;;;;15.02;10.73;;;5.10;89.30;;;;;;6199671;23;20001;-92
2021/04/28 05:01:08;;;;;;;12.52;9.80;;;5.20;89.20;;;;;;6213388;23;20065;-92
2021/04/28 05:04:14;;;;;;;13.25;9.75;;;5.30;88.90;;;;;;6196663;23;20008;-93
2021/04/28 05:13:42;;;;;;;15.15;10.77;;;5.70;88.30;;;;;;6189458;23;20015;-93
2021/04/28 05:20:52;;;;;;;;;;;;;;;;;;;;;
2021/04/28 05:24:17;;;;;;;14.32;10.65;;;6.00;87.10;;;;;;6122110;23;20037;-93
2021/04/28 05:27:30;;;;;;;;;;;;;;;;;;;;;
2021/04/28 05:30:14;;;;;;;;;;;;;;;;;;;;;
2021/04/28 05:33:17;;;;;;;14.05;9.68;;;6.30;86.40;;;;;;6195043;23;20032;-92
2021/04/28 05:36:36;;;;;;;11.55;9.85;;;6.40;86.10;;;;;;6197180;23;20001;-93
2021/04/28 05:39:38;;;;;;;14.43;9.65;;;6.40;85.80;;;;;;6197781;23;20088;-96
2021/04/28 05:42:32;;;;;;;;;;;6.60;86.00;;;;;;6191345;23;20008;-95
2021/04/28 05:45:12;;;;;;;12.95;8.82;;;6.70;85.20;;;;;;6195292;23;19900;-93
2021/04/28 05:48:06;;;;;;;10.75;7.63;;;6.80;85.10;;;;;;6197505;23;20321;-91
2021/04/28 05:51:11;;;;;;;;;;;;;;;;;;;;;
2021/04/28 05:54:31;;;;;;;14.27;9.05;;;7.00;85.10;;;;;;6195074;23;20032;-93
2021/04/28 05:57:18;;;;;;;;;;;;;;;;;;;;;
2021/04/28 06:36:12;;;;;;;8.57;6.53;;;9.20;78.50;;;;;;5684693;25;20104;-93
2021/04/28 06:42:26;;;;;;;12.35;6.30;;;9.50;77.60;;;;;;5808225;24;20067;-93
2021/04/28 06:45:43;;;;;;;;;;;;;;;;;;;;;
2021/04/28 06:48:10;;;;;;;9.75;6.18;;;9.80;76.20;;;;;;6057251;23;20007;-94
2021/04/28 06:51:03;;;;;;;;;;;;;;;;;;;;;
2021/04/28 06:54:31;;;;;;;;;;;;;;;;;;;;;
2021/04/28 06:57:57;;;;;;;7.72;5.72;;;10.00;74.20;;;;;;6172268;23;20437;-95
2021/04/28 07:11:38;;;;;;;9.00;6.22;;;10.60;70.50;;;;;;6013289;23;20043;-94
2021/04/28 07:14:44;;;;;;;;;;;;;;;;;;;;;
2021/04/28 07:20:42;;;;;;;10.38;6.15;;;10.90;70.30;;;;;;6147078;23;20086;-93
2021/04/28 07:24:00;;;;;;;;;;;;;;;;;;;;;
2021/04/28 07:32:39;;;;;;;7.10;5.45;;;10.90;67.20;;;;;;6207235;23;20089;-92
2021/04/28 07:35:35;;;;;;;8.02;5.22;;;10.80;67.50;;;;;;6211275;23;20021;-93
2021/04/28 07:38:21;;;;;;;6.25;4.57;;;10.90;66.90;;;;;;6210676;23;20001;-93
2021/04/28 07:41:38;;;;;;;7.70;4.70;;;11.00;65.90;;;;;;6189677;23;20008;-92
2021/04/28 07:44:51;;;;;;;5.53;4.05;;;11.10;64.90;;;;;;6213150;23;20042;-91
2021/04/28 07:47:27;;;;;;;7.28;4.45;;;11.30;62.00;;;;;;6209938;23;20040;-93
2021/04/28 07:50:10;;;;;;;6.88;5.30;;;11.50;64.90;;;;;;6210173;23;20001;-92
2021/04/28 07:56:41;;;;;;;12.23;9.77;;;11.70;62.90;;;;;;6211603;23;20001;-92
2021/04/28 07:59:44;;;;;;;12.60;9.43;;;11.70;63.20;;;;;;6210783;23;20113;-93
2021/04/28 08:02:46;;;;;;;;;;;;;;;;;;;;;
2021/04/28 08:05:43;;;;;;;8.13;6.50;;;11.70;63.70;;;;;;6206452;23;20001;-94
2021/04/28 08:15:00;;;;;;;13.38;8.57;;;11.80;61.10;;;;;;6212442;23;20069;-93
2021/04/28 08:17:49;;;;;;;13.77;9.65;;;11.80;62.10;;;;;;6213401;23;20009;-93
2021/04/28 08:32:57;;;;;;;;;;;;;;;;;;;;;
2021/04/28 08:35:13;;;;;;;;;;;;;;;;;;;;;
2021/04/28 08:37:59;;;;;;;12.15;9.68;;;12.00;57.60;;;;;;6271221;23;20003;-94
2021/04/28 08:41:21;;;;;;;18.65;10.07;;;12.00;58.30;;;;;;6245240;23;20004;-93
2021/04/28 08:44:13;;;;;;;;;;;;;;;;;;;;;
2021/04/28 08:47:20;;;;;;;13.65;10.32;;;12.40;56.70;;;;;;6272303;23;19992;-94
2021/04/28 08:50:27;;;;;;;13.52;9.30;;;12.50;55.90;;;;;;6245439;23;20004;-94
2021/04/28 08:53:24;;;;;;;13.00;8.68;;;12.70;51.90;;;;;;6243930;23;20004;-91
2021/04/28 08:56:04;;;;;;;10.27;7.25;;;12.70;53.00;;;;;;6270510;23;20006;-92
2021/04/28 08:58:37;;;;;;;7.65;6.75;;;12.70;53.00;;;;;;6246037;23;20004;-91
2021/04/28 09:01:37;;;;;;;;;;;;;;;;;;;;;
2021/04/28 09:04:12;;;;;;;8.50;6.22;;;12.90;51.30;;;;;;6267291;23;20223;-92
2021/04/28 09:06:59;;;;;;;6.85;4.80;;;12.90;50.90;;;;;;6231754;23;20320;-93
2021/04/28 09:09:28;;;;;;;6.78;4.47;;;13.00;50.30;;;;;;6218350;23;20004;-90
2021/04/28 15:07:01;;;;;;;2.22;2.03;;;24.00;28.00;;;;;;6213072;23;20047;-91
2021/04/28 15:09:27;;;;;;;2.05;1.90;;;23.90;28.40;;;;;;6192866;23;20019;-92
2021/04/28 15:11:53;;;;;;;2.55;2.35;;;24.00;29.20;;;;;;6219347;23;19997;-92
2021/04/28 15:14:24;;;;;;;2.13;1.90;;;24.20;28.80;;;;;;6192773;23;20015;-92
2021/04/28 15:16:50;;;;;;;3.00;2.38;;;24.20;28.90;;;;;;6191106;23;20008;-91
2021/04/28 15:19:16;;;;;;;5.00;2.30;;;24.40;29.00;;;;;;6192249;23;20001;-93
2021/04/28 15:21:41;;;;;;;2.30;2.10;;;24.60;28.60;;;;;;6191980;23;20032;-91
2021/04/28 15:24:09;;;;;;;2.10;2.00;;;24.70;28.80;;;;;;6192064;23;20051;-92
2021/04/28 15:26:35;;;;;;;2.38;2.17;;;25.00;28.80;;;;;;6188916;23;20428;-94
2021/04/28 15:29:11;;;;;;;2.20;2.10;;;25.30;28.70;;;;;;6191300;23;20054;-92
2021/04/28 15:31:37;;;;;;;2.10;1.90;;;25.40;28.20;;;;;;6191396;23;20008;-94
2021/04/28 15:34:04;;;;;;;2.15;2.03;;;25.60;28.60;;;;;;6192127;23;20020;-91
2021/04/28 15:36:36;;;;;;;2.85;1.88;;;25.90;28.60;;;;;;6193037;23;20027;-94
2021/04/28 15:39:06;;;;;;;3.58;1.98;;;26.10;28.50;;;;;;6166095;23;20420;-91
2021/04/28 15:41:32;;;;;;;3.42;1.85;;;26.30;28.50;;;;;;6187239;23;19997;-90
2021/04/28 15:43:59;;;;;;;2.25;2.03;;;26.50;28.60;;;;;;6190232;23;20004;-92
2021/04/28 15:46:27;;;;;;;2.40;2.17;;;26.60;28.50;;;;;;6190173;23;20004;-91
2021/04/28 15:48:53;;;;;;;2.15;1.60;;;26.60;28.20;;;;;;6192503;23;20001;-91
2021/04/28 15:51:20;;;;;;;3.08;2.20;;;26.60;28.20;;;;;;6219100;23;20004;-90
2021/04/28 15:53:49;;;;;;;2.42;2.22;;;26.50;27.80;;;;;;6167874;23;20120;-93
2021/04/28 15:56:15;;;;;;;2.83;2.45;;;26.30;27.70;;;;;;6195107;23;20012;-92
2021/04/28 15:58:41;;;;;;;3.30;2.72;;;25.90;27.60;;;;;;6192433;23;20012;-93
2021/04/28 16:01:08;;;;;;;3.10;2.40;;;25.50;27.50;;;;;;6194348;23;20000;-93
2021/04/28 16:03:46;;;;;;;2.60;2.40;;;25.10;27.90;;;;;;6195691;23;20024;-94
2021/04/28 16:06:13;;;;;;;2.40;2.03;;;25.10;28.00;;;;;;6173137;23;20005;-93
2021/04/28 16:08:50;;;;;;;2.72;2.50;;;25.20;28.30;;;;;;6171541;23;20029;-93
2021/04/28 16:11:17;;;;;;;2.65;2.15;;;25.20;27.90;;;;;;6164116;23;20025;-93
2021/04/28 16:13:43;;;;;;;2.80;2.17;;;25.00;28.10;;;;;;6156270;23;20021;-91
2021/04/28 16:16:18;;;;;;;3.58;2.20;;;24.90;28.10;;;;;;6157963;23;20084;-92
2021/04/28 16:18:44;;;;;;;2.33;2.13;;;24.70;27.50;;;;;;6151808;23;20093;-93
2021/04/28 16:21:10;;;;;;;3.55;2.42;;;24.20;27.70;;;;;;6133133;23;20006;-93
2021/04/28 16:23:40;;;;;;;2.60;2.03;;;23.40;27.70;;;;;;6157495;23;20004;-92
2021/04/28 16:26:07;;;;;;;1.73;1.63;;;22.40;28.10;;;;;;6160396;23;20013;-90
2021/04/28 16:28:37;;;;;;;2.17;1.77;;;21.30;28.50;;;;;;6158360;23;20005;-90
2021/04/28 16:31:05;;;;;;;1.92;1.73;;;20.40;29.00;;;;;;6156181;23;20008;-91
2021/04/28 16:33:33;;;;;;;2.22;1.73;;;19.40;29.40;;;;;;6158627;23;20013;-92
2021/04/28 16:36:00;;;;;;;2.05;1.83;;;18.60;29.90;;;;;;6158160;23;20017;-94
2021/04/28 16:38:25;;;;;;;3.08;1.83;;;17.90;30.40;;;;;;6132557;23;20013;-94
2021/04/28 16:40:52;;;;;;;1.80;1.70;;;17.20;30.90;;;;;;6161826;23;20002;-93
2021/04/28 16:43:18;;;;;;;3.28;2.03;;;16.60;31.50;;;;;;6136253;23;20020;-94
2021/04/28 16:45:47;;;;;;;2.65;1.90;;;16.10;32.10;;;;;;6158098;23;20024;-92
2021/04/28 16:48:15;;;;;;;4.30;2.42;;;15.60;32.50;;;;;;6160021;23;20036;-95
2021/04/28 16:50:41;;;;;;;2.08;1.73;;;15.10;33.00;;;;;;6160301;23;19993;-92
2021/04/28 16:53:07;;;;;;;2.85;1.90;;;14.70;33.40;;;;;;6133629;23;20012;-93
2021/04/28 16:55:33;;;;;;;3.17;1.83;;;14.30;33.90;;;;;;6157701;23;20013;-93
2021/04/28 16:58:13;;;;;;;3.45;2.17;;;14.00;34.30;;;;;;6135402;23;20006;-95
2021/04/28 17:00:39;;;;;;;2.53;1.77;;;13.70;34.60;;;;;;6167599;23;20033;-94
2021/04/28 17:03:05;;;;;;;5.32;2.33;;;13.40;35.00;;;;;;6162909;23;20005;-92
2021/04/28 17:05:32;;;;;;;2.85;2.17;;;13.10;35.70;;;;;;6158068;23;20025;-93
2021/04/28 17:11:40;;;;;;;3.78;2.17;;;12.60;36.80;;;;;;6205683;23;20019;-91
2021/04/28 17:14:05;;;;;;;4.30;2.45;;;12.30;36.80;;;;;;6190836;23;20008;-91
2021/04/28 17:16:31;;;;;;;2.72;2.20;;;12.10;37.10;;;;;;6191297;23;20076;-91
2021/04/28 17:18:57;;;;;;;3.40;2.42;;;11.90;37.50;;;;;;6191257;23;20005;-89
2021/04/28 17:21:23;;;;;;;2.90;2.22;;;11.80;37.80;;;;;;6191603;23;20051;-91
2021/04/28 17:23:48;;;;;;;2.72;2.40;;;11.60;38.20;;;;;;6191737;23;20005;-90
2021/04/28 17:26:16;;;;;;;4.63;2.90;;;11.50;38.50;;;;;;6190834;23;20005;-89
2021/04/28 17:28:41;;;;;;;4.07;2.78;;;11.30;38.80;;;;;;6190867;23;20031;-89
2021/04/28 17:31:07;;;;;;;5.03;2.78;;;11.20;38.90;;;;;;6217608;23;20000;-89
2021/04/28 17:33:33;;;;;;;4.15;3.05;;;11.10;39.10;;;;;;6191045;23;20094;-89
2021/04/28 17:35:58;;;;;;;5.93;3.42;;;11.00;39.50;;;;;;6190793;23;20011;-91
2021/04/28 17:38:24;;;;;;;3.90;3.08;;;10.90;39.80;;;;;;6216831;23;20011;-90
2021/04/28 17:40:50;;;;;;;4.25;2.83;;;10.80;39.90;;;;;;6216649;23;20000;-88
2021/04/28 17:43:16;;;;;;;6.43;3.35;;;10.70;40.00;;;;;;6190592;23;20463;-87
2021/04/28 17:52:47;;;;;;;3.03;2.55;;;10.40;40.90;;;;;;6218418;23;20012;-88
2021/04/28 17:55:12;;;;;;;4.80;3.35;;;10.30;40.60;;;;;;6191775;23;20445;-88
2021/04/28 17:57:46;;;;;;;5.72;3.35;;;10.30;40.90;;;;;;6190459;23;20475;-88
2021/04/28 18:00:13;;;;;;;;;;;10.20;41.00;;;;;;6191209;23;20031;-88
2021/04/28 18:02:38;;;;;;;4.30;3.13;;;10.10;41.90;;;;;;6218765;23;19942;-90
2021/04/28 18:05:42;;;;;;;5.78;4.00;;;10.10;41.30;;;;;;6192724;23;20004;-89
2021/04/28 18:15:23;;;;;;;8.43;5.43;;;9.90;42.60;;;;;;6217254;23;20373;-89
2021/04/28 18:21:12;;;;;;;8.35;5.63;;;9.70;42.80;;;;;;6216787;23;20047;-88
2021/04/28 18:27:00;;;;;;;7.55;5.47;;;9.60;43.40;;;;;;6216661;23;20367;-89
2021/04/28 18:32:53;;;;;;;8.90;6.45;;;9.50;43.80;;;;;;6216629;23;20342;-89
2021/04/28 18:38:56;;;;;;;10.25;6.07;;;9.40;44.00;;;;;;6216618;23;20051;-89
2021/04/28 18:45:00;;;;;;;8.43;5.10;;;9.30;44.50;;;;;;6216719;23;20016;-89
2021/04/28 18:51:02;;;;;;;5.10;4.30;;;9.20;45.20;;;;;;6216828;23;20084;-89
2021/04/28 18:56:54;;;;;;;6.70;4.45;;;9.10;46.30;;;;;;6216688;23;20012;-90
2021/04/28 19:02:42;;;;;;;11.35;6.60;;;9.00;46.50;;;;;;6217281;23;20067;-91
2021/04/28 19:05:08;;;;;;;14.65;8.98;;;9.00;46.50;;;;;;6190767;23;20427;-91
2021/04/28 19:10:56;;;;;;;12.48;8.23;;;8.80;47.30;;;;;;6217033;23;20327;-91
2021/04/28 19:13:21;;;;;;;11.80;7.63;;;8.80;47.60;;;;;;6191740;23;20000;-89
2021/04/28 19:15:48;;;;;;;10.00;6.63;;;8.70;47.80;;;;;;6191235;23;20430;-92
2021/04/28 19:18:14;;;;;;;11.05;6.55;;;8.70;48.50;;;;;;6191448;23;20054;-93
2021/04/28 19:20:40;;;;;;;9.82;6.45;;;8.60;49.00;;;;;;6191975;23;20008;-92
2021/04/28 19:23:07;;;;;;;9.52;6.35;;;8.60;48.80;;;;;;6192687;23;20013;-91
2021/04/28 19:25:33;;;;;;;11.27;7.18;;;8.50;49.50;;;;;;6191275;23;20000;-91
2021/04/28 19:27:59;;;;;;;13.27;6.97;;;8.50;49.90;;;;;;6191876;23;20001;-91
2021/04/28 19:30:25;;;;;;;11.00;6.72;;;8.50;49.30;;;;;;6191452;23;20058;-92
2021/04/28 19:32:57;;;;;;;13.20;6.60;;;8.40;49.30;;;;;;6216647;23;20005;-94
2021/04/28 19:38:44;;;;;;;11.45;6.53;;;8.40;50.10;;;;;;6217394;23;20062;-91
2021/04/28 19:41:11;;;;;;;14.65;7.30;;;8.30;50.10;;;;;;6218242;23;20381;-92
2021/04/28 19:43:37;;;;;;;10.05;6.50;;;8.30;49.90;;;;;;6192663;23;20005;-92
2021/04/28 19:46:03;;;;;;;9.40;5.72;;;8.20;50.50;;;;;;6192824;23;20001;-92
2021/04/28 19:48:29;;;;;;;8.68;5.55;;;8.20;50.70;;;;;;6212866;23;20027;-91
2021/04/28 19:50:55;;;;;;;7.80;4.80;;;8.10;50.60;;;;;;6214496;23;20024;-91
2021/04/28 19:53:21;;;;;;;7.88;4.82;;;8.10;50.90;;;;;;6214812;23;20055;-93
2021/04/28 19:55:46;;;;;;;10.00;5.22;;;8.10;51.10;;;;;;6216424;23;20000;-91
2021/04/28 19:58:12;;;;;;;6.72;4.82;;;8.10;51.20;;;;;;6215349;23;20028;-93
2021/04/28 20:00:38;;;;;;;8.63;4.80;;;8.10;51.50;;;;;;6220625;23;20075;-93
2021/04/28 20:03:04;;;;;;;8.48;5.18;;;8.10;51.40;;;;;;6194867;23;20012;-91
2021/04/28 20:05:30;;;;;;;6.20;4.68;;;8.00;51.20;;;;;;6218750;23;20000;-91
2021/04/28 20:07:57;;;;;;;7.03;4.75;;;8.00;51.60;;;;;;6191580;23;20083;-90
2021/04/28 20:10:23;;;;;;;6.88;4.47;;;8.00;51.40;;;;;;6190924;23;20000;-89
2021/04/28 20:12:48;;;;;;;5.43;3.97;;;7.90;51.50;;;;;;6189746;23;20004;-90
2021/04/28 20:15:15;;;;;;;6.47;3.92;;;7.90;51.50;;;;;;6190130;23;20575;-92
2021/04/28 20:17:41;;;;;;;7.38;4.32;;;7.90;51.70;;;;;;6191447;23;20420;-89
2021/04/28 20:20:09;;;;;;;5.65;3.88;;;7.90;51.70;;;;;;6217546;23;19997;-90
2021/04/28 20:26:00;;;;;;;4.78;3.45;;;7.80;52.10;;;;;;6216850;23;20012;-89
2021/04/28 20:28:26;;;;;;;6.40;3.78;;;7.80;51.80;;;;;;6190844;23;20005;-89
2021/04/28 20:30:52;;;;;;;7.05;3.95;;;7.70;51.80;;;;;;6216767;23;19996;-91
2021/04/28 20:33:19;;;;;;;5.72;4.10;;;7.80;51.70;;;;;;6190424;23;20079;-90
2021/04/28 20:39:07;;;;;;;5.75;3.45;;;7.70;52.10;;;;;;6219225;23;20012;-91
2021/04/28 20:44:55;;;;;;;4.72;2.97;;;7.70;52.00;;;;;;6218079;23;20027;-89
2021/04/28 20:47:21;;;;;;;5.78;3.75;;;7.70;51.70;;;;;;6218513;23;20004;-91
2021/04/28 20:49:47;;;;;;;7.00;3.42;;;7.60;51.80;;;;;;6191967;23;20009;-90
2021/04/28 20:52:17;;;;;;;7.70;3.55;;;7.60;51.70;;;;;;6192357;23;20032;-90
2021/04/28 20:54:43;;;;;;;9.10;2.83;;;7.50;51.70;;;;;;6191676;23;20083;-90
2021/04/28 20:57:09;;;;;;;4.28;2.85;;;7.50;51.70;;;;;;6191426;23;20340;-90
2021/04/28 20:59:34;;;;;;;3.72;2.90;;;7.50;52.00;;;;;;6191839;23;20076;-89
2021/04/28 21:02:00;;;;;;;5.05;2.75;;;7.40;51.80;;;;;;6191869;23;20305;-90
2021/04/28 21:04:26;;;;;;;2.95;2.65;;;7.40;52.00;;;;;;6192154;23;20043;-91
2021/04/28 21:10:18;;;;;;;3.38;2.50;;;7.40;52.30;;;;;;6218349;23;20007;-92
2021/04/28 21:13:10;;;;;;;3.20;2.83;;;7.40;52.00;;;;;;6158688;23;20368;-90
2021/04/28 21:15:36;;;;;;;4.43;2.88;;;7.30;52.40;;;;;;6157823;23;20447;-90
2021/04/28 21:18:02;;;;;;;3.58;2.42;;;7.30;52.00;;;;;;6158140;23;20029;-90
2021/04/28 21:20:29;;;;;;;4.22;2.90;;;7.30;52.10;;;;;;6157056;23;20476;-92
2021/04/28 21:22:55;;;;;;;3.70;2.90;;;7.30;51.90;;;;;;6157977;23;20012;-90
2021/04/28 21:25:22;;;;;;;3.15;2.60;;;7.30;52.00;;;;;;6156459;23;20076;-92
2021/04/28 21:27:49;;;;;;;4.05;2.50;;;7.30;52.00;;;;;;6156813;23;20006;-91
2021/04/28 21:30:15;;;;;;;3.75;2.60;;;7.20;52.10;;;;;;6157380;23;20336;-90
2021/04/28 21:32:43;;;;;;;3.90;2.65;;;7.20;52.10;;;;;;6156561;23;20036;-92
2021/04/28 21:35:09;;;;;;;4.70;3.10;;;7.10;52.10;;;;;;6158515;23;20133;-92
2021/04/28 21:37:36;;;;;;;4.13;3.22;;;7.10;52.30;;;;;;6156770;23;20043;-90
2021/04/28 21:40:03;;;;;;;7.00;3.85;;;7.10;52.40;;;;;;6156743;23;19998;-91
2021/04/28 21:42:28;;;;;;;5.72;3.60;;;7.10;52.60;;;;;;6157785;23;20322;-92
2021/04/28 21:44:54;;;;;;;12.25;4.00;;;7.00;52.60;;;;;;6157014;23;20001;-91
2021/04/28 21:47:20;;;;;;;11.13;5.07;;;7.00;52.60;;;;;;6157327;23;20009;-90
2021/04/28 21:49:46;;;;;;;15.48;6.45;;;7.00;52.80;;;;;;6157174;23;20033;-90
2021/04/28 21:52:11;;;;;;;16.17;5.32;;;7.00;53.00;;;;;;6157253;23;20084;-92
2021/04/28 21:54:37;;;;;;;17.70;6.93;;;6.90;53.30;;;;;;6158837;23;20456;-90
2021/04/28 21:57:03;;;;;;;19.30;6.72;;;6.90;53.20;;;;;;6156816;23;20017;-91
2021/04/28 21:59:28;;;;;;;10.63;6.05;;;6.90;53.40;;;;;;6156718;23;20333;-90
2021/04/28 22:01:54;;;;;;;14.75;6.55;;;6.90;53.60;;;;;;6156881;23;20033;-90
2021/04/28 22:04:21;;;;;;;12.63;6.45;;;6.90;53.50;;;;;;6156351;23;20013;-90
2021/04/28 22:06:46;;;;;;;14.35;6.70;;;6.90;53.60;;;;;;6132054;23;20002;-90
2021/04/28 22:09:12;;;;;;;10.20;6.15;;;6.90;53.60;;;;;;6156741;23;20052;-90
2021/04/28 22:11:38;;;;;;;7.40;4.80;;;6.90;53.70;;;;;;6156284;23;20045;-92
2021/04/28 22:14:04;;;;;;;9.75;5.03;;;6.80;53.70;;;;;;6156268;23;20001;-91
2021/04/28 22:16:30;;;;;;;9.07;4.90;;;6.80;53.90;;;;;;6156195;23;19997;-92
2021/04/28 22:18:56;;;;;;;8.70;5.63;;;6.80;53.90;;;;;;6156455;23;20029;-89
2021/04/28 22:21:22;;;;;;;11.15;5.75;;;6.80;53.90;;;;;;6156504;23;20321;-90
2021/04/28 22:23:48;;;;;;;9.90;5.20;;;6.80;54.00;;;;;;6132603;23;20006;-92
2021/04/28 22:26:18;;;;;;;7.15;4.97;;;6.70;54.00;;;;;;6157525;23;20037;-91
2021/04/28 22:28:44;;;;;;;8.68;5.35;;;6.70;54.20;;;;;;6161060;23;20400;-90
2021/04/28 22:31:10;;;;;;;11.48;6.05;;;6.70;54.40;;;;;;6161905;23;20009;-92
2021/04/28 22:33:36;;;;;;;10.73;5.30;;;6.70;54.40;;;;;;6159668;23;20006;-90
2021/04/28 22:36:03;;;;;;;11.57;6.35;;;6.60;54.60;;;;;;6156642;23;20012;-90
2021/04/28 22:38:29;;;;;;;14.38;7.35;;;6.60;54.70;;;;;;6156040;23;20200;-92
2021/04/28 22:40:55;;;;;;;14.07;7.15;;;6.60;55.00;;;;;;6156476;23;20001;-94
2021/04/28 22:43:21;;;;;;;16.17;8.43;;;6.50;54.90;;;;;;6132213;23;20318;-91
2021/04/28 22:45:47;;;;;;;16.52;8.50;;;6.50;55.00;;;;;;6157690;23;20402;-93
2021/04/28 22:48:13;;;;;;;15.82;8.48;;;6.50;55.10;;;;;;6131643;23;20410;-90
2021/04/28 22:50:40;;;;;;;20.65;9.15;;;6.40;55.10;;;;;;6157747;23;19997;-89
2021/04/28 22:53:07;;;;;;;14.65;6.70;;;6.40;55.60;;;;;;6156517;23;20005;-90
2021/04/28 22:55:33;;;;;;;12.82;6.40;;;6.40;55.40;;;;;;6158016;23;20029;-92
2021/04/28 22:57:59;;;;;;;13.60;7.13;;;6.30;55.60;;;;;;6157059;23;20001;-90
2021/04/28 23:00:25;;;;;;;13.70;6.80;;;6.30;55.50;;;;;;6157902;23;20055;-90
2021/04/28 23:02:52;;;;;;;12.88;6.38;;;6.30;55.60;;;;;;6156968;23;20420;-90
2021/04/28 23:05:18;;;;;;;11.60;7.07;;;6.30;56.00;;;;;;6156979;23;20114;-91
2021/04/28 23:07:44;;;;;;;8.73;5.18;;;6.30;56.30;;;;;;6156777;23;20318;-90
2021/04/28 23:10:11;;;;;;;8.82;5.35;;;6.30;56.10;;;;;;6159933;23;20001;-91
2021/04/28 23:12:38;;;;;;;8.90;5.55;;;6.20;56.30;;;;;;6189385;23;20072;-91
2021/04/28 23:15:05;;;;;;;9.15;5.22;;;6.20;56.30;;;;;;6187308;23;20429;-90
2021/04/28 23:17:31;;;;;;;9.43;5.38;;;6.20;56.40;;;;;;6185999;23;20088;-90
2021/04/28 23:19:56;;;;;;;8.85;5.28;;;6.20;56.60;;;;;;6186260;23;20083;-90